createdAt,value
2016-08-28T00:00:18.538Z,27.54
2016-08-28T00:01:19.254Z,27.44
2016-08-28T00:02:19.969Z,27.55
2016-08-28T00:03:19.979Z,27.51
2016-08-28T00:04:18.584Z,27.44
2016-08-28T00:05:19.992Z,27.44
2016-08-28T00:06:19.349Z,27.43
2016-08-28T00:07:20.008Z,27.55
2016-08-28T00:08:19.310Z,27.47
2016-08-28T00:09:19.318Z,27.46
2016-08-28T00:10:19.322Z,27.49
2016-08-28T00:11:19.334Z,27.39
2016-08-28T00:12:19.392Z,27.25
2016-08-28T00:13:19.351Z,27.17
2016-08-28T00:14:20.059Z,27.13
2016-08-28T00:15:20.070Z,27.13
2016-08-28T00:16:18.660Z,27.12
2016-08-28T00:17:19.377Z,27.14
2016-08-28T00:18:20.087Z,27.03
2016-08-28T00:19:20.243Z,27.03
2016-08-28T00:20:19.400Z,27.06
2016-08-28T00:21:20.113Z,27.18
2016-08-28T00:22:20.121Z,27.07
2016-08-28T00:23:19.421Z,27.07
2016-08-28T00:24:19.426Z,27.1
2016-08-28T00:25:18.732Z,27.12
2016-08-28T00:26:19.444Z,27.19
2016-08-28T00:27:19.447Z,27.22
2016-08-28T00:28:19.199Z,27.17
2016-08-28T00:29:18.752Z,27.04
2016-08-28T00:30:21.279Z,27.1
2016-08-28T00:31:19.528Z,27.1
2016-08-28T00:32:19.495Z,27.12
2016-08-28T00:33:19.492Z,27.19
2016-08-28T00:34:19.551Z,27.21
2016-08-28T00:35:18.799Z,27.22
2016-08-28T00:36:19.515Z,27.29
2016-08-28T00:37:20.230Z,27.28
2016-08-28T00:38:19.530Z,27.19
2016-08-28T00:39:19.592Z,27.07
2016-08-28T00:40:19.545Z,27.1
2016-08-28T00:41:20.329Z,27.13
2016-08-28T00:42:19.556Z,27.18
2016-08-28T00:43:19.616Z,27.13
2016-08-28T00:44:18.862Z,27.14
2016-08-28T00:45:19.580Z,27.13
2016-08-28T00:46:20.291Z,27.25
2016-08-28T00:47:20.303Z,27.28
2016-08-28T00:48:20.312Z,27.24
2016-08-28T00:49:19.612Z,27.13
2016-08-28T00:50:19.618Z,27.04
2016-08-28T00:51:20.332Z,27.09
2016-08-28T00:52:20.635Z,27.12
2016-08-28T00:53:20.345Z,27.14
2016-08-28T00:54:19.043Z,27.14
2016-08-28T00:55:20.366Z,27.12
2016-08-28T00:56:19.663Z,27.13
2016-08-28T00:57:18.962Z,27.03
2016-08-28T00:58:18.969Z,27.14
2016-08-28T00:59:19.698Z,27.12
2016-08-28T01:00:20.401Z,27.14
2016-08-28T01:01:19.697Z,27.09
2016-08-28T01:02:20.415Z,27.13
2016-08-28T01:03:20.769Z,27.13
2016-08-28T01:04:19.725Z,27.06
2016-08-28T01:05:19.734Z,27.09
2016-08-28T01:06:20.446Z,27.18
2016-08-28T01:07:20.458Z,27.1
2016-08-28T01:08:20.461Z,27.1
2016-08-28T01:09:19.759Z,27.09
2016-08-28T01:10:20.474Z,27.07
2016-08-28T01:11:20.483Z,27
2016-08-28T01:12:19.781Z,27.1
2016-08-28T01:13:20.497Z,27.09
2016-08-28T01:14:20.293Z,27.12
2016-08-28T01:15:20.511Z,27.06
2016-08-28T01:16:21.536Z,27.12
2016-08-28T01:17:20.526Z,27.06
2016-08-28T01:18:19.823Z,27.1
2016-08-28T01:19:20.541Z,27.13
2016-08-28T01:20:20.547Z,27.09
2016-08-28T01:21:20.555Z,27.12
2016-08-28T01:22:19.858Z,27.1
2016-08-28T01:23:19.877Z,27.1
2016-08-28T01:24:19.870Z,27.07
2016-08-28T01:25:19.927Z,27.06
2016-08-28T01:26:19.885Z,27.04
2016-08-28T01:27:21.193Z,27.02
2016-08-28T01:28:20.657Z,27.06
2016-08-28T01:29:20.663Z,27.1
2016-08-28T01:30:19.207Z,27.09
2016-08-28T01:31:20.626Z,27.12
2016-08-28T01:32:20.640Z,27.04
2016-08-28T01:33:19.935Z,27.07
2016-08-28T01:34:20.100Z,27.04
2016-08-28T01:35:20.002Z,27.04
2016-08-28T01:36:20.061Z,27.09
2016-08-28T01:37:19.966Z,27.02
2016-08-28T01:38:19.969Z,26.99
2016-08-28T01:39:20.687Z,27.06
2016-08-28T01:40:19.978Z,26.91
2016-08-28T01:41:20.716Z,27.03
2016-08-28T01:42:20.006Z,27.07
2016-08-28T01:43:20.716Z,27.09
2016-08-28T01:44:20.722Z,27.1
2016-08-28T01:45:20.779Z,27.09
2016-08-28T01:46:20.079Z,27.12
2016-08-28T01:47:20.743Z,27.06
2016-08-28T01:48:20.753Z,27.09
2016-08-28T01:49:21.709Z,27.06
2016-08-28T01:50:20.059Z,27.07
2016-08-28T01:51:20.925Z,27.09
2016-08-28T01:52:20.075Z,27.04
2016-08-28T01:53:20.088Z,27.07
2016-08-28T01:54:20.091Z,27.06
2016-08-28T01:55:20.095Z,27.07
2016-08-28T01:56:20.112Z,27.12
2016-08-28T01:57:19.404Z,27.09
2016-08-28T01:58:20.150Z,27.12
2016-08-28T01:59:20.834Z,27.12
2016-08-28T02:00:21.667Z,27.04
2016-08-28T02:01:20.848Z,27.04
2016-08-28T02:02:20.805Z,26.95
2016-08-28T02:03:20.863Z,27.03
2016-08-28T02:04:19.467Z,27
2016-08-28T02:05:20.170Z,27.12
2016-08-28T02:06:20.225Z,27.06
2016-08-28T02:07:20.184Z,27.04
2016-08-28T02:08:19.486Z,27.13
2016-08-28T02:09:20.907Z,27.12
2016-08-28T02:10:20.222Z,27.12
2016-08-28T02:11:20.780Z,27.1
2016-08-28T02:12:20.928Z,27.13
2016-08-28T02:13:20.938Z,27.14
2016-08-28T02:14:20.243Z,27.18
2016-08-28T02:15:19.535Z,27.13
2016-08-28T02:16:20.263Z,27.18
2016-08-28T02:17:20.972Z,27.25
2016-08-28T02:18:20.271Z,27.13
2016-08-28T02:19:20.272Z,27.25
2016-08-28T02:20:20.990Z,27.17
2016-08-28T02:21:19.585Z,27.07
2016-08-28T02:22:20.491Z,27.14
2016-08-28T02:23:21.015Z,27.18
2016-08-28T02:24:20.316Z,27.12
2016-08-28T02:25:21.031Z,27.25
2016-08-28T02:26:20.829Z,27.17
2016-08-28T02:27:20.339Z,27.27
2016-08-28T02:28:20.345Z,27.17
2016-08-28T02:29:19.648Z,27.17
2016-08-28T02:30:20.410Z,27.28
2016-08-28T02:31:21.077Z,27.17
2016-08-28T02:32:19.675Z,27.24
2016-08-28T02:33:20.394Z,27.24
2016-08-28T02:34:20.398Z,27.22
2016-08-28T02:35:20.403Z,27.17
2016-08-28T02:36:20.415Z,27.17
2016-08-28T02:37:21.060Z,27.13
2016-08-28T02:38:19.720Z,27.22
2016-08-28T02:39:20.482Z,27.09
2016-08-28T02:40:20.445Z,27.24
2016-08-28T02:41:21.156Z,27.17
2016-08-28T02:42:20.460Z,27.19
2016-08-28T02:43:20.464Z,27.25
2016-08-28T02:44:20.524Z,27.19
2016-08-28T02:45:21.187Z,27.12
2016-08-28T02:46:22.055Z,27.24
2016-08-28T02:47:21.206Z,27.24
2016-08-28T02:48:21.314Z,27.17
2016-08-28T02:49:21.220Z,27.21
2016-08-28T02:50:19.815Z,27.17
2016-08-28T02:51:19.873Z,27.27
2016-08-28T02:52:20.539Z,27.22
2016-08-28T02:53:20.559Z,27.17
2016-08-28T02:54:19.848Z,27.27
2016-08-28T02:55:20.562Z,27.17
2016-08-28T02:56:19.863Z,27.14
2016-08-28T02:57:22.240Z,27.09
2016-08-28T02:58:19.877Z,27.12
2016-08-28T02:59:21.501Z,27.19
2016-08-28T03:00:19.894Z,27.14
2016-08-28T03:01:19.904Z,27.25
2016-08-28T03:02:20.617Z,27.27
2016-08-28T03:03:21.334Z,27.13
2016-08-28T03:04:20.636Z,27.27
2016-08-28T03:05:19.936Z,27.24
2016-08-28T03:06:21.361Z,27.21
2016-08-28T03:07:20.660Z,27.27
2016-08-28T03:08:21.132Z,27.25
2016-08-28T03:09:21.382Z,27.24
2016-08-28T03:10:21.390Z,27.22
2016-08-28T03:11:20.684Z,27.25
2016-08-28T03:12:21.675Z,27.28
2016-08-28T03:13:20.705Z,27.24
2016-08-28T03:14:20.010Z,27.28
2016-08-28T03:15:21.434Z,27.24
2016-08-28T03:16:20.731Z,27.36
2016-08-28T03:17:20.738Z,27.29
2016-08-28T03:18:20.749Z,27.25
2016-08-28T03:19:20.756Z,27.29
2016-08-28T03:20:20.766Z,27.29
2016-08-28T03:21:20.824Z,27.36
2016-08-28T03:22:21.488Z,27.34
2016-08-28T03:23:20.790Z,27.31
2016-08-28T03:24:21.504Z,27.31
2016-08-28T03:25:21.511Z,27.36
2016-08-28T03:26:21.518Z,27.34
2016-08-28T03:27:21.531Z,27.39
2016-08-28T03:28:20.123Z,27.37
2016-08-28T03:29:20.133Z,27.31
2016-08-28T03:30:20.896Z,27.34
2016-08-28T03:31:20.149Z,27.34
2016-08-28T03:32:21.570Z,27.36
2016-08-28T03:33:21.630Z,27.32
2016-08-28T03:34:22.735Z,27.34
2016-08-28T03:35:20.893Z,27.34
2016-08-28T03:36:20.191Z,27.27
2016-08-28T03:37:21.611Z,27.34
2016-08-28T03:38:20.913Z,27.29
2016-08-28T03:39:20.918Z,27.28
2016-08-28T03:40:20.981Z,27.24
2016-08-28T03:41:20.943Z,27.27
2016-08-28T03:42:20.242Z,27.31
2016-08-28T03:43:20.697Z,27.32
2016-08-28T03:44:20.964Z,27.29
2016-08-28T03:45:22.024Z,27.31
2016-08-28T03:46:20.978Z,27.27
2016-08-28T03:47:20.995Z,27.21
2016-08-28T03:48:21.700Z,27.27
2016-08-28T03:49:21.003Z,27.28
2016-08-28T03:50:21.717Z,27.31
2016-08-28T03:51:21.730Z,27.22
2016-08-28T03:52:20.322Z,27.18
2016-08-28T03:53:21.747Z,27.25
2016-08-28T03:54:21.755Z,27.29
2016-08-28T03:55:21.759Z,27.25
2016-08-28T03:56:22.066Z,27.24
2016-08-28T03:57:21.773Z,27.19
2016-08-28T03:58:21.276Z,27.18
2016-08-28T03:59:21.135Z,27.09
2016-08-28T04:00:21.804Z,27.03
2016-08-28T04:01:21.809Z,27.02
2016-08-28T04:02:21.816Z,27.04
2016-08-28T04:03:21.826Z,27.07
2016-08-28T04:04:21.829Z,27
2016-08-28T04:05:21.841Z,27.06
2016-08-28T04:06:21.139Z,27.07
2016-08-28T04:07:22.290Z,27.12
2016-08-28T04:08:20.445Z,27.07
2016-08-28T04:09:21.865Z,27.07
2016-08-28T04:10:20.463Z,27.13
2016-08-28T04:11:21.172Z,27.12
2016-08-28T04:12:21.891Z,27.13
2016-08-28T04:13:21.191Z,27.22
2016-08-28T04:14:20.492Z,27.19
2016-08-28T04:15:21.208Z,27.24
2016-08-28T04:16:21.920Z,27.19
2016-08-28T04:17:21.224Z,27.19
2016-08-28T04:18:21.807Z,27.17
2016-08-28T04:19:21.239Z,27.27
2016-08-28T04:20:22.007Z,27.25
2016-08-28T04:21:21.256Z,27.32
2016-08-28T04:22:21.969Z,27.21
2016-08-28T04:23:21.977Z,27.19
2016-08-28T04:24:21.987Z,27.25
2016-08-28T04:25:21.286Z,27.28
2016-08-28T04:26:21.308Z,27.31
2016-08-28T04:27:21.303Z,27.27
2016-08-28T04:28:21.308Z,27.27
2016-08-28T04:29:22.986Z,27.24
2016-08-28T04:30:22.030Z,27.31
2016-08-28T04:31:20.880Z,27.28
2016-08-28T04:32:21.342Z,27.28
2016-08-28T04:33:21.399Z,27.29
2016-08-28T04:34:22.066Z,27.25
2016-08-28T04:35:21.365Z,27.29
2016-08-28T04:36:22.081Z,27.27
2016-08-28T04:37:21.381Z,27.22
2016-08-28T04:38:22.093Z,27.21
2016-08-28T04:39:21.400Z,27.27
2016-08-28T04:40:22.764Z,27.28
2016-08-28T04:41:21.417Z,27.24
2016-08-28T04:42:21.424Z,27.28
2016-08-28T04:43:20.725Z,27.28
2016-08-28T04:44:20.734Z,27.27
2016-08-28T04:45:22.152Z,27.31
2016-08-28T04:46:22.161Z,27.25
2016-08-28T04:47:21.463Z,27.25
2016-08-28T04:48:21.470Z,27.28
2016-08-28T04:49:22.189Z,27.17
2016-08-28T04:50:21.484Z,27.13
2016-08-28T04:51:22.196Z,27.17
2016-08-28T04:52:20.792Z,27.19
2016-08-28T04:53:21.522Z,27.24
2016-08-28T04:54:21.569Z,27.21
2016-08-28T04:55:22.635Z,27.28
2016-08-28T04:56:22.238Z,27.28
2016-08-28T04:57:20.836Z,27.25
2016-08-28T04:58:20.844Z,27.32
2016-08-28T04:59:22.266Z,27.32
2016-08-28T05:00:21.571Z,27.36
2016-08-28T05:01:22.283Z,27.31
2016-08-28T05:02:22.286Z,27.27
2016-08-28T05:03:20.884Z,27.24
2016-08-28T05:04:22.714Z,27.34
2016-08-28T05:05:20.949Z,27.31
2016-08-28T05:06:22.622Z,27.34
2016-08-28T05:07:21.619Z,27.36
2016-08-28T05:08:21.629Z,27.32
2016-08-28T05:09:22.347Z,27.21
2016-08-28T05:10:21.647Z,27.39
2016-08-28T05:11:22.362Z,27.31
2016-08-28T05:12:20.958Z,27.28
2016-08-28T05:13:21.669Z,27.34
2016-08-28T05:14:21.680Z,27.31
2016-08-28T05:15:21.688Z,27.39
2016-08-28T05:16:22.403Z,27.36
2016-08-28T05:17:22.256Z,27.37
2016-08-28T05:18:21.708Z,27.4
2016-08-28T05:19:22.426Z,27.31
2016-08-28T05:20:22.489Z,27.41
2016-08-28T05:21:21.737Z,27.44
2016-08-28T05:22:22.453Z,27.36
2016-08-28T05:23:21.750Z,27.43
2016-08-28T05:24:21.764Z,27.39
2016-08-28T05:25:21.769Z,27.41
2016-08-28T05:26:22.533Z,27.36
2016-08-28T05:27:21.787Z,27.4
2016-08-28T05:28:22.498Z,27.41
2016-08-28T05:29:22.509Z,27.4
2016-08-28T05:30:21.103Z,27.37
2016-08-28T05:31:21.822Z,27.39
2016-08-28T05:32:21.126Z,27.4
2016-08-28T05:33:21.834Z,27.49
2016-08-28T05:34:21.845Z,27.51
2016-08-28T05:35:22.562Z,27.47
2016-08-28T05:36:21.864Z,27.46
2016-08-28T05:37:23.430Z,27.46
2016-08-28T05:38:21.170Z,27.51
2016-08-28T05:39:21.181Z,27.5
2016-08-28T05:40:21.898Z,27.49
2016-08-28T05:41:22.408Z,27.49
2016-08-28T05:42:21.914Z,27.44
2016-08-28T05:43:21.922Z,27.5
2016-08-28T05:44:21.931Z,27.49
2016-08-28T05:45:22.644Z,27.46
2016-08-28T05:46:21.948Z,27.59
2016-08-28T05:47:22.011Z,27.57
2016-08-28T05:48:21.965Z,27.5
2016-08-28T05:49:22.680Z,27.49
2016-08-28T05:50:23.411Z,27.57
2016-08-28T05:51:22.695Z,27.51
2016-08-28T05:52:22.803Z,27.59
2016-08-28T05:53:21.301Z,27.55
2016-08-28T05:54:22.014Z,27.51
2016-08-28T05:55:21.316Z,27.43
2016-08-28T05:56:22.035Z,27.49
2016-08-28T05:57:22.090Z,27.49
2016-08-28T05:58:22.758Z,27.5
2016-08-28T05:59:22.767Z,27.59
2016-08-28T06:00:21.357Z,27.59
2016-08-28T06:01:23.958Z,27.49
2016-08-28T06:02:21.378Z,27.6
2016-08-28T06:03:22.534Z,27.47
2016-08-28T06:04:22.109Z,27.49
2016-08-28T06:05:22.109Z,27.55
2016-08-28T06:06:22.824Z,27.57
2016-08-28T06:07:22.126Z,27.59
2016-08-28T06:08:22.841Z,27.59
2016-08-28T06:09:21.486Z,27.59
2016-08-28T06:10:22.867Z,27.54
2016-08-28T06:11:22.160Z,27.66
2016-08-28T06:12:23.472Z,27.55
2016-08-28T06:13:22.176Z,27.63
2016-08-28T06:14:23.545Z,27.65
2016-08-28T06:15:22.193Z,27.69
2016-08-28T06:16:22.909Z,27.62
2016-08-28T06:17:22.209Z,27.7
2016-08-28T06:18:22.928Z,27.7
2016-08-28T06:19:21.521Z,27.69
2016-08-28T06:20:22.234Z,27.7
2016-08-28T06:21:22.245Z,27.72
2016-08-28T06:22:22.255Z,27.75
2016-08-28T06:23:23.717Z,27.66
2016-08-28T06:24:22.270Z,27.65
2016-08-28T06:25:22.984Z,27.77
2016-08-28T06:26:22.994Z,27.75
2016-08-28T06:27:23.471Z,27.79
2016-08-28T06:28:21.599Z,27.85
2016-08-28T06:29:21.607Z,27.79
2016-08-28T06:30:21.631Z,27.82
2016-08-28T06:31:23.038Z,27.84
2016-08-28T06:32:22.339Z,27.88
2016-08-28T06:33:23.058Z,27.9
2016-08-28T06:34:22.361Z,27.84
2016-08-28T06:35:22.367Z,27.94
2016-08-28T06:36:22.472Z,28
2016-08-28T06:37:21.731Z,28.11
2016-08-28T06:38:23.803Z,28.12
2016-08-28T06:39:22.404Z,28.09
2016-08-28T06:40:23.119Z,28.15
2016-08-28T06:41:22.442Z,28.36
2016-08-28T06:42:21.729Z,28.31
2016-08-28T06:43:22.455Z,28.52
2016-08-28T06:44:21.755Z,28.46
2016-08-28T06:45:22.475Z,28.55
2016-08-28T06:46:23.186Z,28.58
2016-08-28T06:47:23.202Z,28.68
2016-08-28T06:48:22.503Z,28.59
2016-08-28T06:49:21.814Z,28.7
2016-08-28T06:50:23.238Z,28.66
2016-08-28T06:51:23.244Z,28.68
2016-08-28T06:52:22.547Z,28.68
2016-08-28T06:53:22.575Z,28.73
2016-08-28T06:54:23.278Z,28.78
2016-08-28T06:55:21.880Z,28.81
2016-08-28T06:56:21.890Z,28.85
2016-08-28T06:57:23.315Z,28.92
2016-08-28T06:58:22.416Z,28.85
2016-08-28T06:59:22.632Z,28.86
2016-08-28T07:00:23.867Z,28.81
2016-08-28T07:01:23.369Z,28.9
2016-08-28T07:02:23.479Z,28.8
2016-08-28T07:03:22.683Z,28.58
2016-08-28T07:04:23.402Z,28.61
2016-08-28T07:05:22.708Z,28.54
2016-08-28T07:06:23.422Z,28.58
2016-08-28T07:07:22.728Z,28.49
2016-08-28T07:08:23.446Z,28.56
2016-08-28T07:09:22.090Z,28.41
2016-08-28T07:10:23.467Z,28.33
2016-08-28T07:11:23.923Z,28.4
2016-08-28T07:12:22.070Z,28.4
2016-08-28T07:13:22.383Z,28.25
2016-08-28T07:14:22.799Z,28.39
2016-08-28T07:15:22.108Z,28.31
2016-08-28T07:16:22.821Z,28.31
2016-08-28T07:17:22.830Z,28.3
2016-08-28T07:18:23.613Z,28.18
2016-08-28T07:19:22.849Z,28.21
2016-08-28T07:20:22.859Z,28.22
2016-08-28T07:21:22.868Z,28.24
2016-08-28T07:22:23.926Z,28.17
2016-08-28T07:23:22.890Z,28.17
2016-08-28T07:24:23.001Z,28.12
2016-08-28T07:25:23.616Z,28.18
2016-08-28T07:26:22.213Z,28.17
2016-08-28T07:27:22.932Z,28.12
2016-08-28T07:28:22.230Z,28.17
2016-08-28T07:29:23.654Z,28.17
2016-08-28T07:30:22.252Z,28.11
2016-08-28T07:31:23.677Z,28.09
2016-08-28T07:32:22.273Z,28.04
2016-08-28T07:33:23.277Z,28.18
2016-08-28T07:34:23.004Z,28.09
2016-08-28T07:35:24.534Z,28.17
2016-08-28T07:36:23.017Z,28.09
2016-08-28T07:37:23.077Z,28.15
2016-08-28T07:38:22.333Z,28.06
2016-08-28T07:39:23.046Z,28.12
2016-08-28T07:40:23.053Z,28.09
2016-08-28T07:41:23.063Z,28.03
2016-08-28T07:42:23.782Z,28.06
2016-08-28T07:43:23.084Z,28.07
2016-08-28T07:44:23.343Z,28.04
2016-08-28T07:45:22.398Z,28.04
2016-08-28T07:46:24.635Z,28.04
2016-08-28T07:47:23.883Z,28.04
2016-08-28T07:48:23.835Z,28.02
2016-08-28T07:49:23.141Z,27.96
2016-08-28T07:50:23.148Z,28
2016-08-28T07:51:22.452Z,27.99
2016-08-28T07:52:22.461Z,27.94
2016-08-28T07:53:22.471Z,28.09
2016-08-28T07:54:23.534Z,28
2016-08-28T07:55:23.194Z,28.02
2016-08-28T07:56:23.915Z,28.02
2016-08-28T07:57:22.513Z,28.02
2016-08-28T07:58:23.937Z,28.06
2016-08-28T07:59:23.384Z,27.99
2016-08-28T08:00:23.242Z,28.04
2016-08-28T08:01:23.253Z,28.07
2016-08-28T08:02:23.268Z,28.02
2016-08-28T08:03:22.567Z,28.06
2016-08-28T08:04:23.284Z,28.09
2016-08-28T08:05:22.586Z,28.06
2016-08-28T08:06:24.057Z,28
2016-08-28T08:07:24.018Z,27.99
2016-08-28T08:08:24.229Z,28
2016-08-28T08:09:24.083Z,28.09
2016-08-28T08:10:23.338Z,28.09
2016-08-28T08:11:24.053Z,28.07
2016-08-28T08:12:22.650Z,27.99
2016-08-28T08:13:23.368Z,28.11
2016-08-28T08:14:23.375Z,28.04
2016-08-28T08:15:23.384Z,28.04
2016-08-28T08:16:23.396Z,28
2016-08-28T08:17:24.110Z,28.03
2016-08-28T08:18:24.119Z,28.06
2016-08-28T08:19:24.526Z,27.93
2016-08-28T08:20:23.443Z,28.04
2016-08-28T08:21:23.437Z,28.11
2016-08-28T08:22:23.449Z,28.14
2016-08-28T08:23:23.463Z,28.02
2016-08-28T08:24:23.469Z,28.03
2016-08-28T08:25:24.184Z,28.03
2016-08-28T08:26:24.240Z,28.03
2016-08-28T08:27:22.842Z,28.03
2016-08-28T08:28:23.505Z,28
2016-08-28T08:29:24.222Z,28.04
2016-08-28T08:30:24.075Z,27.99
2016-08-28T08:31:23.533Z,28.09
2016-08-28T08:32:25.366Z,28.07
2016-08-28T08:33:23.551Z,28
2016-08-28T08:34:23.564Z,28.04
2016-08-28T08:35:23.567Z,27.99
2016-08-28T08:36:24.282Z,28
2016-08-28T08:37:22.882Z,28.03
2016-08-28T08:38:22.937Z,28.12
2016-08-28T08:39:23.607Z,28.29
2016-08-28T08:40:24.323Z,28.43
2016-08-28T08:41:23.726Z,28.48
2016-08-28T08:42:23.633Z,28.44
2016-08-28T08:43:25.142Z,28.56
2016-08-28T08:44:24.361Z,28.55
2016-08-28T08:45:23.005Z,28.58
2016-08-28T08:46:23.683Z,28.55
2016-08-28T08:47:24.394Z,28.66
2016-08-28T08:48:23.690Z,28.68
2016-08-28T08:49:22.994Z,28.56
2016-08-28T08:50:23.707Z,28.56
2016-08-28T08:51:24.426Z,28.52
2016-08-28T08:52:24.277Z,28.43
2016-08-28T08:53:24.642Z,28.37
2016-08-28T08:54:23.746Z,28.37
2016-08-28T08:55:23.098Z,28.33
2016-08-28T08:56:24.770Z,28.29
2016-08-28T08:57:23.773Z,28.3
2016-08-28T08:58:23.787Z,28.24
2016-08-28T08:59:23.793Z,28.29
2016-08-28T09:00:24.511Z,28.29
2016-08-28T09:01:23.813Z,28.4
2016-08-28T09:02:23.830Z,28.43
2016-08-28T09:03:24.540Z,28.44
2016-08-28T09:04:23.131Z,28.37
2016-08-28T09:05:23.147Z,28.37
2016-08-28T09:06:24.568Z,28.34
2016-08-28T09:07:24.310Z,28.34
2016-08-28T09:08:23.172Z,28.49
2016-08-28T09:09:23.887Z,28.36
2016-08-28T09:10:23.898Z,28.34
2016-08-28T09:11:24.662Z,28.34
2016-08-28T09:12:24.626Z,28.41
2016-08-28T09:13:23.929Z,28.3
2016-08-28T09:14:23.228Z,28.33
2016-08-28T09:15:24.655Z,28.31
2016-08-28T09:16:25.294Z,28.41
2016-08-28T09:17:24.673Z,28.36
2016-08-28T09:18:23.975Z,28.34
2016-08-28T09:19:23.985Z,28.36
2016-08-28T09:20:24.705Z,28.33
2016-08-28T09:21:24.706Z,28.34
2016-08-28T09:22:24.013Z,28.4
2016-08-28T09:23:24.027Z,28.39
2016-08-28T09:24:24.035Z,28.43
2016-08-28T09:25:24.045Z,28.54
2016-08-28T09:26:24.050Z,28.43
2016-08-28T09:27:25.778Z,28.41
2016-08-28T09:28:24.777Z,28.41
2016-08-28T09:29:24.281Z,28.34
2016-08-28T09:30:23.382Z,28.36
2016-08-28T09:31:25.612Z,28.36
2016-08-28T09:32:24.108Z,28.39
2016-08-28T09:33:24.822Z,28.41
2016-08-28T09:34:24.132Z,28.39
2016-08-28T09:35:24.135Z,28.43
2016-08-28T09:36:23.442Z,28.34
2016-08-28T09:37:23.451Z,28.33
2016-08-28T09:38:25.928Z,28.4
2016-08-28T09:39:24.884Z,28.39
2016-08-28T09:40:24.335Z,28.34
2016-08-28T09:41:24.196Z,28.34
2016-08-28T09:42:25.058Z,28.4
2016-08-28T09:43:24.212Z,28.52
2016-08-28T09:44:24.929Z,28.52
2016-08-28T09:45:24.234Z,28.49
2016-08-28T09:46:23.536Z,28.52
2016-08-28T09:47:24.958Z,28.4
2016-08-28T09:48:24.259Z,28.41
2016-08-28T09:49:24.270Z,28.52
2016-08-28T09:50:24.288Z,28.49
2016-08-28T09:51:25.975Z,28.49
2016-08-28T09:52:25.004Z,28.52
2016-08-28T09:53:26.033Z,28.43
2016-08-28T09:54:24.320Z,28.39
2016-08-28T09:55:23.672Z,28.4
2016-08-28T09:56:25.044Z,28.37
2016-08-28T09:57:24.347Z,28.34
2016-08-28T09:58:25.114Z,28.34
2016-08-28T09:59:25.070Z,28.36
2016-08-28T10:00:24.373Z,28.51
2016-08-28T10:01:23.687Z,28.54
2016-08-28T10:02:25.108Z,28.55
2016-08-28T10:03:24.405Z,28.48
2016-08-28T10:04:25.769Z,28.39
2016-08-28T10:05:24.425Z,28.48
2016-08-28T10:06:24.433Z,28.43
2016-08-28T10:07:24.446Z,28.52
2016-08-28T10:08:25.165Z,28.52
2016-08-28T10:09:23.757Z,28.56
2016-08-28T10:10:25.176Z,28.58
2016-08-28T10:11:23.772Z,28.36
2016-08-28T10:12:24.490Z,28.43
2016-08-28T10:13:26.115Z,28.46
2016-08-28T10:14:25.214Z,28.49
2016-08-28T10:15:25.372Z,28.56
2016-08-28T10:16:25.282Z,28.46
2016-08-28T10:17:25.242Z,28.58
2016-08-28T10:18:23.839Z,28.55
2016-08-28T10:19:23.850Z,28.51
2016-08-28T10:20:25.272Z,28.48
2016-08-28T10:21:25.284Z,28.49
2016-08-28T10:22:24.585Z,28.44
2016-08-28T10:23:24.602Z,28.49
2016-08-28T10:24:24.602Z,28.52
2016-08-28T10:25:24.614Z,28.41
2016-08-28T10:26:25.721Z,28.4
2016-08-28T10:27:23.926Z,28.39
2016-08-28T10:28:26.238Z,28.44
2016-08-28T10:29:24.649Z,28.52
2016-08-28T10:30:23.954Z,28.49
2016-08-28T10:31:23.959Z,28.41
2016-08-28T10:32:24.021Z,28.54
2016-08-28T10:33:23.977Z,28.55
2016-08-28T10:34:24.701Z,28.49
2016-08-28T10:35:25.411Z,28.48
2016-08-28T10:36:25.421Z,28.54
2016-08-28T10:37:26.085Z,28.59
2016-08-28T10:38:24.733Z,28.46
2016-08-28T10:39:24.044Z,28.54
2016-08-28T10:40:25.458Z,28.44
2016-08-28T10:41:25.471Z,28.56
2016-08-28T10:42:24.820Z,28.51
2016-08-28T10:43:25.491Z,28.56
2016-08-28T10:44:24.799Z,28.51
2016-08-28T10:45:24.802Z,28.44
2016-08-28T10:46:25.518Z,28.56
2016-08-28T10:47:24.111Z,28.54
2016-08-28T10:48:24.574Z,28.52
2016-08-28T10:49:24.837Z,28.52
2016-08-28T10:50:26.607Z,28.55
2016-08-28T10:51:24.151Z,28.49
2016-08-28T10:52:25.575Z,28.55
2016-08-28T10:53:25.583Z,28.59
2016-08-28T10:54:24.890Z,28.54
2016-08-28T10:55:24.945Z,28.61
2016-08-28T10:56:24.904Z,28.52
2016-08-28T10:57:25.619Z,28.55
2016-08-28T10:58:24.219Z,28.54
2016-08-28T10:59:24.928Z,28.55
2016-08-28T11:00:25.652Z,28.54
2016-08-28T11:01:26.226Z,28.67
2016-08-28T11:02:24.255Z,28.59
2016-08-28T11:03:24.269Z,28.56
2016-08-28T11:04:24.326Z,28.61
2016-08-28T11:05:25.701Z,28.66
2016-08-28T11:06:25.710Z,28.59
2016-08-28T11:07:25.010Z,28.58
2016-08-28T11:08:25.027Z,28.56
2016-08-28T11:09:25.737Z,28.56
2016-08-28T11:10:25.047Z,28.54
2016-08-28T11:11:25.058Z,28.52
2016-08-28T11:12:26.397Z,28.54
2016-08-28T11:13:25.779Z,28.54
2016-08-28T11:14:25.078Z,28.61
2016-08-28T11:15:24.385Z,28.59
2016-08-28T11:16:25.807Z,28.62
2016-08-28T11:17:24.398Z,28.56
2016-08-28T11:18:25.169Z,28.62
2016-08-28T11:19:25.129Z,28.54
2016-08-28T11:20:25.140Z,28.56
2016-08-28T11:21:25.854Z,28.59
2016-08-28T11:22:25.157Z,28.56
2016-08-28T11:23:25.713Z,28.64
2016-08-28T11:24:25.179Z,28.55
2016-08-28T11:25:25.236Z,28.64
2016-08-28T11:26:25.900Z,28.58
2016-08-28T11:27:25.206Z,28.7
2016-08-28T11:28:25.925Z,28.62
2016-08-28T11:29:25.927Z,28.64
2016-08-28T11:30:25.234Z,28.66
2016-08-28T11:31:25.245Z,28.66
2016-08-28T11:32:25.959Z,28.66
2016-08-28T11:33:25.262Z,28.67
2016-08-28T11:34:25.969Z,28.59
2016-08-28T11:35:25.285Z,28.59
2016-08-28T11:36:25.291Z,28.62
2016-08-28T11:37:25.303Z,28.61
2016-08-28T11:38:25.312Z,28.61
2016-08-28T11:39:25.324Z,28.62
2016-08-28T11:40:24.621Z,28.67
2016-08-28T11:41:25.337Z,28.62
2016-08-28T11:42:25.352Z,28.66
2016-08-28T11:43:24.649Z,28.61
2016-08-28T11:44:25.370Z,28.62
2016-08-28T11:45:26.232Z,28.68
2016-08-28T11:46:24.682Z,28.64
2016-08-28T11:47:26.797Z,28.64
2016-08-28T11:48:25.409Z,28.61
2016-08-28T11:49:25.419Z,28.7
2016-08-28T11:50:25.426Z,28.67
2016-08-28T11:51:25.434Z,28.66
2016-08-28T11:52:25.443Z,28.54
2016-08-28T11:53:25.456Z,28.62
2016-08-28T11:54:24.759Z,28.54
2016-08-28T11:55:26.177Z,28.58
2016-08-28T11:56:25.481Z,28.55
2016-08-28T11:57:26.224Z,28.66
2016-08-28T11:58:26.303Z,28.62
2016-08-28T11:59:25.513Z,28.64
2016-08-28T12:00:26.247Z,28.68
2016-08-28T12:01:24.823Z,28.55
2016-08-28T12:02:25.552Z,28.66
2016-08-28T12:03:25.545Z,28.56
2016-08-28T12:04:26.264Z,28.66
2016-08-28T12:05:25.575Z,28.67
2016-08-28T12:06:25.588Z,28.62
2016-08-28T12:07:25.639Z,28.52
2016-08-28T12:08:26.361Z,28.56
2016-08-28T12:09:26.515Z,28.67
2016-08-28T12:10:26.325Z,28.55
2016-08-28T12:11:25.635Z,28.64
2016-08-28T12:12:26.353Z,28.58
2016-08-28T12:13:24.939Z,28.68
2016-08-28T12:14:25.655Z,28.66
2016-08-28T12:15:25.665Z,28.59
2016-08-28T12:16:25.742Z,28.59
2016-08-28T12:17:26.394Z,28.55
2016-08-28T12:18:24.987Z,28.55
2016-08-28T12:19:26.464Z,28.66
2016-08-28T12:20:26.063Z,28.66
2016-08-28T12:21:25.723Z,28.55
2016-08-28T12:22:25.229Z,28.7
2016-08-28T12:23:26.448Z,28.68
2016-08-28T12:24:26.462Z,28.68
2016-08-28T12:25:25.058Z,28.55
2016-08-28T12:26:25.777Z,28.58
2016-08-28T12:27:25.794Z,28.67
2016-08-28T12:28:25.791Z,28.52
2016-08-28T12:29:26.511Z,28.56
2016-08-28T12:30:25.811Z,28.61
2016-08-28T12:31:26.368Z,28.62
2016-08-28T12:32:25.126Z,28.59
2016-08-28T12:33:27.762Z,28.59
2016-08-28T12:34:26.559Z,28.55
2016-08-28T12:35:25.861Z,28.56
2016-08-28T12:36:26.577Z,28.7
2016-08-28T12:37:25.880Z,28.68
2016-08-28T12:38:25.889Z,28.66
2016-08-28T12:39:26.603Z,28.64
2016-08-28T12:40:25.203Z,28.66
2016-08-28T12:41:25.919Z,28.58
2016-08-28T12:42:26.641Z,28.66
2016-08-28T12:43:25.936Z,28.56
2016-08-28T12:44:27.096Z,28.62
2016-08-28T12:45:25.962Z,28.61
2016-08-28T12:46:26.217Z,28.55
2016-08-28T12:47:26.036Z,28.66
2016-08-28T12:48:25.984Z,28.62
2016-08-28T12:49:25.991Z,28.61
2016-08-28T12:50:26.003Z,28.58
2016-08-28T12:51:26.014Z,28.56
2016-08-28T12:52:26.729Z,28.58
2016-08-28T12:53:25.329Z,28.61
2016-08-28T12:54:26.042Z,28.67
2016-08-28T12:55:27.887Z,28.7